createdAt,value
2017-07-23T00:00:46.523Z,55.50
2017-07-23T00:03:14.599Z,55.60
2017-07-23T00:05:42.667Z,55.70
2017-07-23T00:08:10.739Z,55.70
2017-07-23T00:10:38.806Z,55.60
2017-07-23T00:13:06.883Z,55.70
2017-07-23T00:15:34.950Z,55.70
2017-07-23T00:18:03.032Z,56.10
2017-07-23T00:20:31.103Z,56.10
2017-07-23T00:22:59.167Z,56.00
2017-07-23T00:25:27.233Z,56.10
2017-07-23T00:27:56.071Z,56.20
2017-07-23T00:30:24.960Z,56.40
2017-07-23T00:32:53.027Z,56.40
2017-07-23T00:35:21.090Z,56.70
2017-07-23T00:37:49.158Z,57.20
2017-07-23T00:40:17.246Z,57.60
2017-07-23T00:42:47.039Z,58.70
2017-07-23T00:45:15.120Z,58.30
2017-07-23T00:47:43.191Z,58.30
2017-07-23T00:50:11.258Z,58.40
2017-07-23T00:52:40.349Z,58.30
2017-07-23T00:55:08.418Z,58.50
2017-07-23T00:57:36.489Z,58.20
2017-07-23T01:00:04.567Z,58.50
2017-07-23T01:02:32.631Z,58.70
2017-07-23T01:05:00.704Z,58.70
2017-07-23T01:07:28.814Z,58.90
2017-07-23T01:09:56.912Z,59.10
2017-07-23T01:12:24.983Z,59.10
2017-07-23T01:14:53.048Z,59.20
2017-07-23T01:17:21.114Z,59.00
2017-07-23T01:19:49.172Z,58.60
2017-07-23T01:22:18.015Z,58.30
2017-07-23T01:24:46.078Z,58.30
2017-07-23T01:27:14.149Z,57.90
2017-07-23T01:29:42.224Z,57.30
2017-07-23T01:32:10.279Z,57.00
2017-07-23T01:34:38.378Z,56.60
2017-07-23T01:37:06.462Z,56.20
2017-07-23T01:39:34.547Z,56.00
2017-07-23T01:42:02.611Z,55.70
2017-07-23T01:44:30.695Z,55.60
2017-07-23T01:46:58.756Z,55.40
2017-07-23T01:49:26.834Z,55.30
2017-07-23T01:51:55.280Z,55.10
2017-07-23T01:54:23.355Z,54.90
2017-07-23T01:56:51.425Z,55.00
2017-07-23T01:59:19.512Z,54.70
2017-07-23T02:01:47.596Z,54.50
2017-07-23T02:04:15.658Z,54.50
2017-07-23T02:06:43.751Z,54.40
2017-07-23T02:09:11.815Z,54.40
2017-07-23T02:11:39.878Z,54.40
2017-07-23T02:14:07.940Z,54.40
2017-07-23T02:16:36.007Z,54.40
2017-07-23T02:19:04.075Z,54.30
2017-07-23T02:21:32.148Z,54.20
2017-07-23T02:24:00.214Z,54.10
2017-07-23T02:26:28.286Z,53.90
2017-07-23T02:28:56.343Z,53.80
2017-07-23T02:31:24.398Z,53.80
2017-07-23T02:33:53.234Z,53.50
2017-07-23T02:36:21.299Z,53.50
2017-07-23T02:38:49.371Z,53.30
2017-07-23T02:41:17.443Z,53.10
2017-07-23T02:43:45.533Z,52.70
2017-07-23T02:46:13.600Z,52.40
2017-07-23T02:48:41.666Z,52.20
2017-07-23T02:51:09.734Z,52.30
2017-07-23T02:53:37.802Z,52.30
2017-07-23T02:56:05.879Z,52.70
2017-07-23T02:58:33.956Z,52.70
2017-07-23T03:01:02.024Z,52.60
2017-07-23T03:03:30.095Z,52.20
2017-07-23T03:05:58.154Z,52.20
2017-07-23T03:08:26.232Z,51.80
2017-07-23T03:10:54.293Z,51.90
2017-07-23T03:13:22.355Z,51.90
2017-07-23T03:15:50.577Z,51.90
2017-07-23T03:18:18.652Z,52.10
2017-07-23T03:20:46.743Z,52.20
2017-07-23T03:23:14.812Z,52.20
2017-07-23T03:25:42.883Z,52.20
2017-07-23T03:28:10.986Z,52.20
2017-07-23T03:30:39.823Z,51.90
2017-07-23T03:33:07.912Z,51.90
2017-07-23T03:35:35.975Z,52.00
2017-07-23T03:38:04.050Z,51.90
2017-07-23T03:40:32.106Z,51.90
2017-07-23T03:43:00.179Z,51.90
2017-07-23T03:45:28.247Z,51.90
2017-07-23T03:47:56.314Z,51.90
2017-07-23T03:50:24.385Z,51.90
2017-07-23T03:52:52.457Z,51.80
2017-07-23T03:55:20.529Z,51.70
2017-07-23T03:57:48.601Z,51.60
2017-07-23T04:00:16.669Z,51.60
2017-07-23T04:02:44.748Z,51.60
2017-07-23T04:05:12.818Z,51.50
2017-07-23T04:07:40.880Z,51.60
2017-07-23T04:10:08.942Z,51.70
2017-07-23T04:12:36.999Z,51.80
2017-07-23T04:15:05.848Z,51.90
2017-07-23T04:17:33.956Z,51.80
2017-07-23T04:20:02.792Z,51.80
2017-07-23T04:22:30.859Z,51.70
2017-07-23T04:24:58.932Z,51.80
2017-07-23T04:27:26.995Z,51.80
2017-07-23T04:29:55.076Z,51.90
2017-07-23T04:32:23.135Z,52.20
2017-07-23T04:34:51.202Z,52.20
2017-07-23T04:37:19.271Z,52.30
2017-07-23T04:39:47.335Z,52.30
2017-07-23T04:42:16.176Z,52.70
2017-07-23T04:44:44.244Z,52.70
2017-07-23T04:47:12.324Z,52.70
2017-07-23T04:49:40.396Z,52.70
2017-07-23T04:52:08.890Z,52.50
2017-07-23T04:54:36.950Z,52.50
2017-07-23T04:57:05.037Z,52.80
2017-07-23T04:59:33.099Z,52.80
2017-07-23T05:02:01.179Z,53.00
2017-07-23T05:04:29.251Z,53.20
2017-07-23T05:06:57.308Z,53.40
2017-07-23T05:09:25.401Z,53.40
2017-07-23T05:11:53.475Z,53.20
2017-07-23T05:14:21.543Z,53.30
2017-07-23T05:16:49.602Z,53.30
2017-07-23T05:19:17.686Z,53.20
2017-07-23T05:21:45.758Z,53.10
2017-07-23T05:24:13.831Z,53.30
2017-07-23T05:26:41.892Z,53.30
2017-07-23T05:29:09.959Z,53.20
2017-07-23T05:31:38.027Z,53.90
2017-07-23T05:34:06.119Z,55.30
2017-07-23T05:36:34.203Z,56.60
2017-07-23T05:39:02.269Z,56.60
2017-07-23T05:41:30.335Z,56.80
2017-07-23T05:43:58.399Z,57.20
2017-07-23T05:46:26.472Z,57.80
2017-07-23T05:48:54.947Z,57.80
2017-07-23T05:51:23.015Z,58.40
2017-07-23T05:53:51.102Z,58.40
2017-07-23T05:56:19.202Z,58.70
2017-07-23T05:58:48.046Z,59.70
2017-07-23T06:01:16.103Z,59.60
2017-07-23T06:03:44.192Z,59.60
2017-07-23T06:06:12.256Z,59.60
2017-07-23T06:08:40.327Z,59.60
2017-07-23T06:11:08.411Z,59.60
2017-07-23T06:13:36.478Z,59.70
2017-07-23T06:16:04.542Z,59.60
2017-07-23T06:18:32.607Z,59.60
2017-07-23T06:21:00.675Z,59.50
2017-07-23T06:23:28.753Z,59.50
2017-07-23T06:25:56.820Z,59.50
2017-07-23T06:28:24.897Z,59.50
2017-07-23T06:30:52.954Z,59.50
2017-07-23T06:33:21.019Z,59.50
2017-07-23T06:35:49.082Z,59.50
2017-07-23T06:38:17.919Z,59.60
2017-07-23T06:40:45.990Z,59.60
2017-07-23T06:43:14.127Z,59.60
2017-07-23T06:45:42.200Z,59.60
2017-07-23T06:48:10.271Z,59.70
2017-07-23T06:50:38.368Z,59.50
2017-07-23T06:53:06.428Z,59.70
2017-07-23T06:55:34.499Z,59.70
2017-07-23T06:58:02.567Z,59.40
2017-07-23T07:00:30.631Z,59.10
2017-07-23T07:02:58.708Z,58.70
2017-07-23T07:05:26.764Z,58.00
2017-07-23T07:07:55.594Z,56.60
2017-07-23T07:10:23.667Z,56.60
2017-07-23T07:12:51.735Z,56.60
2017-07-23T07:15:19.806Z,56.20
2017-07-23T07:17:47.876Z,56.50
2017-07-23T07:20:15.951Z,57.30
2017-07-23T07:22:44.025Z,57.20
2017-07-23T07:25:12.078Z,57.30
2017-07-23T07:27:40.166Z,57.20
2017-07-23T07:30:08.240Z,56.70
2017-07-23T07:32:36.316Z,57.10
2017-07-23T07:35:04.383Z,56.50
2017-07-23T07:37:32.472Z,56.10
2017-07-23T07:40:00.553Z,55.40
2017-07-23T07:42:28.634Z,55.20
2017-07-23T07:44:56.715Z,55.10
2017-07-23T07:47:24.770Z,54.70
2017-07-23T07:49:52.839Z,54.20
2017-07-23T07:52:20.911Z,54.20
2017-07-23T07:54:48.983Z,54.10
2017-07-23T07:57:17.067Z,52.90
2017-07-23T07:59:45.143Z,52.50
2017-07-23T08:02:13.219Z,52.40
2017-07-23T08:04:41.286Z,50.90
2017-07-23T08:07:09.398Z,51.10
2017-07-23T08:09:37.463Z,51.20
2017-07-23T08:12:05.547Z,48.80
2017-07-23T08:14:33.602Z,48.20
2017-07-23T08:17:01.680Z,47.60
2017-07-23T08:19:29.753Z,47.70
2017-07-23T08:21:58.579Z,48.40
2017-07-23T08:24:26.699Z,48.40
2017-07-23T08:26:54.760Z,48.20
2017-07-23T08:29:22.830Z,48.50
2017-07-23T08:31:50.904Z,47.00
2017-07-23T08:34:19.037Z,46.00
2017-07-23T08:36:47.111Z,47.50
2017-07-23T08:39:15.181Z,48.30
2017-07-23T08:41:43.344Z,48.10
2017-07-23T08:44:11.398Z,47.20
2017-07-23T08:46:39.475Z,46.20
2017-07-23T08:49:07.536Z,46.50
2017-07-23T08:51:36.387Z,44.20
2017-07-23T08:54:04.462Z,44.20
2017-07-23T08:56:32.526Z,44.40
2017-07-23T08:59:00.752Z,46.30
2017-07-23T09:01:29.583Z,43.40
2017-07-23T09:03:57.664Z,43.30
2017-07-23T09:06:25.733Z,43.80
2017-07-23T09:08:53.860Z,43.00
2017-07-23T09:11:21.979Z,40.20
2017-07-23T09:13:50.098Z,38.50
2017-07-23T09:16:18.171Z,38.60
2017-07-23T09:18:47.032Z,38.10
2017-07-23T09:21:15.095Z,38.10
2017-07-23T09:23:43.201Z,36.50
2017-07-23T09:26:14.358Z,36.40
2017-07-23T09:28:42.442Z,36.70
2017-07-23T09:31:10.535Z,36.40
2017-07-23T09:33:38.646Z,36.00
2017-07-23T09:36:06.718Z,34.30
2017-07-23T09:38:34.794Z,34.40
2017-07-23T09:41:03.484Z,34.60
2017-07-23T09:43:31.613Z,33.00
2017-07-23T09:45:59.691Z,34.40
2017-07-23T09:48:27.759Z,33.20
2017-07-23T09:50:55.850Z,33.00
2017-07-23T09:53:23.927Z,34.50
2017-07-23T09:55:51.999Z,33.20
2017-07-23T09:58:20.089Z,32.00
2017-07-23T10:00:48.163Z,33.30
2017-07-23T10:03:16.272Z,32.50
2017-07-23T10:05:44.330Z,31.80
2017-07-23T10:08:13.230Z,31.90
2017-07-23T10:10:41.984Z,31.90
2017-07-23T10:13:10.059Z,32.20
2017-07-23T10:15:38.141Z,32.50
2017-07-23T10:18:06.215Z,33.40
2017-07-23T10:20:34.420Z,33.80
2017-07-23T10:23:02.499Z,34.40
2017-07-23T10:25:30.570Z,32.60
2017-07-23T10:27:59.346Z,32.10
2017-07-23T10:30:27.423Z,31.00
2017-07-23T10:32:55.594Z,30.00
2017-07-23T10:35:23.690Z,30.00
2017-07-23T10:37:51.762Z,30.00
2017-07-23T10:40:19.839Z,28.80
2017-07-23T10:42:47.915Z,28.20
2017-07-23T10:45:16.012Z,28.70
2017-07-23T10:47:44.071Z,28.70
2017-07-23T10:50:12.147Z,28.50
2017-07-23T10:52:40.233Z,29.30
2017-07-23T10:55:08.292Z,29.90
2017-07-23T10:57:36.378Z,28.90
2017-07-23T11:00:04.467Z,29.40
2017-07-23T11:02:33.532Z,29.90
2017-07-23T11:05:01.604Z,29.40
2017-07-23T11:07:29.680Z,29.00
2017-07-23T11:09:57.754Z,28.90
2017-07-23T11:12:26.622Z,28.90
2017-07-23T11:14:54.690Z,28.20
2017-07-23T11:17:22.763Z,28.30
2017-07-23T11:19:50.843Z,27.40
2017-07-23T11:22:18.905Z,28.00
2017-07-23T11:24:46.983Z,28.10
2017-07-23T11:27:15.078Z,28.20
2017-07-23T11:29:43.158Z,28.00
2017-07-23T11:32:11.232Z,28.20
2017-07-23T11:34:39.298Z,28.60
2017-07-23T11:37:07.411Z,28.10
2017-07-23T11:39:36.256Z,27.20
2017-07-23T11:42:04.343Z,27.10
2017-07-23T11:44:32.411Z,27.10
2017-07-23T11:47:00.506Z,25.80
2017-07-23T11:49:28.587Z,25.40
2017-07-23T11:51:56.676Z,26.00
2017-07-23T11:54:24.766Z,26.40
2017-07-23T11:56:52.859Z,26.70
2017-07-23T11:59:20.933Z,26.10
2017-07-23T12:01:48.995Z,26.10
2017-07-23T12:04:17.079Z,25.90
2017-07-23T12:06:45.154Z,26.20
2017-07-23T12:09:13.228Z,26.90
2017-07-23T12:11:41.296Z,26.80
2017-07-23T12:14:09.383Z,26.80
2017-07-23T12:16:37.474Z,26.80
2017-07-23T12:19:05.527Z,27.90
2017-07-23T12:21:33.618Z,27.80
2017-07-23T12:24:02.454Z,26.90
2017-07-23T12:26:30.555Z,26.90
2017-07-23T12:28:58.624Z,27.50
2017-07-23T12:31:26.699Z,27.80
2017-07-23T12:33:54.767Z,27.80
2017-07-23T12:36:22.860Z,28.00
2017-07-23T12:38:50.928Z,28.40
2017-07-23T12:41:19.000Z,29.00
2017-07-23T12:43:47.077Z,29.00
2017-07-23T12:46:15.144Z,28.20
2017-07-23T12:48:43.218Z,28.30
2017-07-23T12:51:11.287Z,28.60
2017-07-23T12:53:39.375Z,28.90
2017-07-23T12:56:07.439Z,29.00
2017-07-23T12:58:35.583Z,28.20
2017-07-23T13:01:03.665Z,27.50
2017-07-23T13:03:31.737Z,27.80
2017-07-23T13:05:59.826Z,26.70
2017-07-23T13:08:27.900Z,26.70
2017-07-23T13:10:55.988Z,26.60
2017-07-23T13:13:24.827Z,25.70
2017-07-23T13:15:52.890Z,25.60
2017-07-23T13:18:20.975Z,26.40
2017-07-23T13:20:49.051Z,25.90
2017-07-23T13:23:17.140Z,26.50
2017-07-23T13:25:45.209Z,25.80
2017-07-23T13:28:13.298Z,24.60
2017-07-23T13:30:41.371Z,24.90
2017-07-23T13:33:09.435Z,24.50
2017-07-23T13:35:37.517Z,25.00
2017-07-23T13:38:05.583Z,24.40
2017-07-23T13:40:33.652Z,24.20
2017-07-23T13:43:01.724Z,24.70
2017-07-23T13:45:29.811Z,24.70
2017-07-23T13:47:57.895Z,24.70
2017-07-23T13:50:25.969Z,24.20
2017-07-23T13:52:54.833Z,24.70
2017-07-23T13:55:22.895Z,24.60
2017-07-23T13:57:50.979Z,24.70
2017-07-23T14:00:19.052Z,25.10
2017-07-23T14:02:47.141Z,25.40
2017-07-23T14:05:15.208Z,25.80
2017-07-23T14:07:43.293Z,26.10
2017-07-23T14:10:11.354Z,25.40
2017-07-23T14:12:40.191Z,25.00
2017-07-23T14:15:08.268Z,25.00
2017-07-23T14:17:36.339Z,24.60
2017-07-23T14:20:04.420Z,24.70
2017-07-23T14:22:32.496Z,24.70
2017-07-23T14:25:00.560Z,24.80
2017-07-23T14:27:28.634Z,25.00
2017-07-23T14:29:56.703Z,24.70
2017-07-23T14:32:24.778Z,24.70
2017-07-23T14:34:52.944Z,25.10
2017-07-23T14:37:21.021Z,24.70
2017-07-23T14:39:49.087Z,25.00
2017-07-23T14:42:17.170Z,25.30
2017-07-23T14:44:45.240Z,25.50
2017-07-23T14:47:13.308Z,25.70
2017-07-23T14:49:41.394Z,25.80
2017-07-23T14:52:09.475Z,25.90
2017-07-23T14:54:37.563Z,25.90
2017-07-23T14:57:05.635Z,26.30
2017-07-23T14:59:33.707Z,25.60
2017-07-23T15:02:01.782Z,25.60
2017-07-23T15:04:29.849Z,25.50
2017-07-23T15:06:57.931Z,26.30
2017-07-23T15:09:25.995Z,25.50
2017-07-23T15:11:54.063Z,25.10
2017-07-23T15:14:22.219Z,25.40
2017-07-23T15:16:50.287Z,25.60
2017-07-23T15:19:18.368Z,25.60
2017-07-23T15:21:46.439Z,25.80
2017-07-23T15:24:14.527Z,25.50
2017-07-23T15:26:42.583Z,26.20
2017-07-23T15:29:10.660Z,24.90
2017-07-23T15:31:38.726Z,24.70
2017-07-23T15:34:06.804Z,25.10
2017-07-23T15:36:34.878Z,25.40
2017-07-23T15:39:02.948Z,25.70
2017-07-23T15:41:31.035Z,26.10
2017-07-23T15:43:59.108Z,26.10
2017-07-23T15:46:27.168Z,26.20
2017-07-23T15:48:55.247Z,25.70
2017-07-23T15:51:23.319Z,25.20
2017-07-23T15:53:51.395Z,25.50
2017-07-23T15:56:19.475Z,24.60
2017-07-23T15:58:47.569Z,24.40
2017-07-23T16:01:16.400Z,25.10
2017-07-23T16:03:44.467Z,25.10
2017-07-23T16:06:12.543Z,24.80
2017-07-23T16:08:40.611Z,25.40
2017-07-23T16:11:08.688Z,24.60
2017-07-23T16:13:36.757Z,23.80
2017-07-23T16:16:04.855Z,24.20
2017-07-23T16:18:32.924Z,24.20
2017-07-23T16:21:00.987Z,24.00
2017-07-23T16:23:29.064Z,24.60
2017-07-23T16:25:57.135Z,24.30
2017-07-23T16:28:25.215Z,24.60
2017-07-23T16:30:53.296Z,24.50
2017-07-23T16:33:21.388Z,24.10
2017-07-23T16:35:49.472Z,24.40
2017-07-23T16:38:18.307Z,25.30
2017-07-23T16:40:46.396Z,25.20
2017-07-23T16:43:14.464Z,24.90
2017-07-23T16:45:42.533Z,24.90
2017-07-23T16:48:10.811Z,25.50
2017-07-23T16:50:38.891Z,25.10
2017-07-23T16:53:06.966Z,26.00
2017-07-23T16:55:35.029Z,25.80
2017-07-23T16:58:03.116Z,25.30
2017-07-23T17:00:31.191Z,25.90
2017-07-23T17:02:59.263Z,25.90
2017-07-23T17:05:27.339Z,25.40
2017-07-23T17:07:55.422Z,25.50
2017-07-23T17:10:24.264Z,25.90
2017-07-23T17:12:52.357Z,25.80
2017-07-23T17:15:20.443Z,25.90
2017-07-23T17:17:48.512Z,25.90
2017-07-23T17:20:16.588Z,25.90
2017-07-23T17:22:44.673Z,25.90
2017-07-23T17:25:12.742Z,25.90
2017-07-23T17:27:40.832Z,25.90
2017-07-23T17:30:09.667Z,25.70
2017-07-23T17:32:37.751Z,25.70
2017-07-23T17:35:05.822Z,26.30
2017-07-23T17:37:34.050Z,26.60
2017-07-23T17:40:02.110Z,26.60
2017-07-23T17:42:30.959Z,27.10
2017-07-23T17:44:59.031Z,27.00
2017-07-23T17:47:27.119Z,26.70
2017-07-23T17:49:55.179Z,26.70
2017-07-23T17:52:23.247Z,26.90
2017-07-23T17:54:51.329Z,26.70
2017-07-23T17:57:19.412Z,26.90
2017-07-23T17:59:47.482Z,26.70
2017-07-23T18:02:15.555Z,27.20
2017-07-23T18:04:43.632Z,27.80
2017-07-23T18:07:11.691Z,27.20
2017-07-23T18:09:39.768Z,27.40
2017-07-23T18:12:07.827Z,27.80
2017-07-23T18:14:35.920Z,27.40
2017-07-23T18:17:03.982Z,27.80
2017-07-23T18:19:32.047Z,27.70
2017-07-23T18:22:00.130Z,28.00
2017-07-23T18:24:28.194Z,27.90
2017-07-23T18:26:56.275Z,28.00
2017-07-23T18:29:24.342Z,28.10
2017-07-23T18:31:52.423Z,27.90
2017-07-23T18:34:20.486Z,28.30
2017-07-23T18:36:48.570Z,27.90
2017-07-23T18:39:16.630Z,28.00
2017-07-23T18:41:44.695Z,28.10
2017-07-23T18:44:12.782Z,28.50
2017-07-23T18:46:40.844Z,28.90
2017-07-23T18:49:08.914Z,28.50
2017-07-23T18:51:36.975Z,28.80
2017-07-23T18:54:05.131Z,28.80
2017-07-23T18:56:33.192Z,28.80
2017-07-23T18:59:01.280Z,28.80
2017-07-23T19:01:29.387Z,28.80
2017-07-23T19:03:57.442Z,29.20
2017-07-23T19:06:25.520Z,29.00
2017-07-23T19:08:53.587Z,29.30
2017-07-23T19:11:21.659Z,29.40
2017-07-23T19:13:49.726Z,29.00
2017-07-23T19:16:17.802Z,29.30
2017-07-23T19:18:45.880Z,29.50
2017-07-23T19:21:13.966Z,29.50
2017-07-23T19:23:42.190Z,29.50
2017-07-23T19:26:10.255Z,29.60
2017-07-23T19:28:38.331Z,29.80
2017-07-23T19:31:06.395Z,29.90
2017-07-23T19:33:34.479Z,29.90
2017-07-23T19:36:02.547Z,29.70
2017-07-23T19:38:30.620Z,30.00
2017-07-23T19:40:58.684Z,30.00
2017-07-23T19:43:26.762Z,30.00
2017-07-23T19:45:54.854Z,30.10
2017-07-23T19:48:22.928Z,30.30
2017-07-23T19:50:51.006Z,30.70
2017-07-23T19:53:19.069Z,30.90
2017-07-23T19:55:47.143Z,30.80
2017-07-23T19:58:15.214Z,31.10
2017-07-23T20:00:43.286Z,30.80
2017-07-23T20:03:11.363Z,30.80
2017-07-23T20:05:39.451Z,31.50
2017-07-23T20:08:07.519Z,31.60
2017-07-23T20:10:35.593Z,31.90
2017-07-23T20:13:03.680Z,32.10
2017-07-23T20:15:31.735Z,32.20
2017-07-23T20:17:59.855Z,31.80
2017-07-23T20:20:28.692Z,32.60
2017-07-23T20:22:56.764Z,32.20
2017-07-23T20:25:24.827Z,32.50
2017-07-23T20:27:52.906Z,33.10
2017-07-23T20:30:20.975Z,33.30
2017-07-23T20:32:49.051Z,33.30
2017-07-23T20:35:17.119Z,33.40
2017-07-23T20:37:45.206Z,33.40
2017-07-23T20:40:13.278Z,33.60
2017-07-23T20:42:41.363Z,34.10
2017-07-23T20:45:09.432Z,34.50
2017-07-23T20:47:37.504Z,35.70
2017-07-23T20:50:05.582Z,36.90
2017-07-23T20:52:33.647Z,37.40
2017-07-23T20:55:01.723Z,36.80
2017-07-23T20:57:29.799Z,36.80
2017-07-23T20:59:57.879Z,36.70
2017-07-23T21:02:25.939Z,36.60
2017-07-23T21:04:54.038Z,36.60
2017-07-23T21:07:22.107Z,36.50
2017-07-23T21:09:50.191Z,36.00
2017-07-23T21:12:18.326Z,36.30
2017-07-23T21:14:46.384Z,36.30
2017-07-23T21:17:14.459Z,36.30
2017-07-23T21:19:42.546Z,36.30
2017-07-23T21:22:10.635Z,37.10
2017-07-23T21:24:38.727Z,36.30
2017-07-23T21:27:07.596Z,36.70
2017-07-23T21:29:35.675Z,36.70
2017-07-23T21:32:04.775Z,36.90
2017-07-23T21:34:32.899Z,37.00
2017-07-23T21:37:00.979Z,37.30
2017-07-23T21:39:29.051Z,37.70
2017-07-23T21:41:57.119Z,37.60
2017-07-23T21:44:25.191Z,37.80
2017-07-23T21:46:53.335Z,38.10
2017-07-23T21:49:22.171Z,38.20
2017-07-23T21:51:50.243Z,38.20
2017-07-23T21:54:18.330Z,38.70
2017-07-23T21:56:46.391Z,38.70
2017-07-23T21:59:14.456Z,38.60
2017-07-23T22:01:43.338Z,39.20
2017-07-23T22:04:11.386Z,39.10
2017-07-23T22:06:39.479Z,39.20
2017-07-23T22:09:07.536Z,39.50
2017-07-23T22:11:35.606Z,39.60
2017-07-23T22:14:03.676Z,40.10
2017-07-23T22:16:31.768Z,40.00
2017-07-23T22:18:59.866Z,40.00
2017-07-23T22:21:27.934Z,39.90
2017-07-23T22:23:56.142Z,39.90
2017-07-23T22:26:24.218Z,39.90
2017-07-23T22:28:52.287Z,39.90
2017-07-23T22:31:20.367Z,39.90
2017-07-23T22:33:49.202Z,40.40
2017-07-23T22:36:17.267Z,40.10
2017-07-23T22:38:45.354Z,40.50
2017-07-23T22:41:13.411Z,40.80
2017-07-23T22:43:41.483Z,40.80
2017-07-23T22:46:09.579Z,41.10
2017-07-23T22:48:37.643Z,40.90
2017-07-23T22:51:05.723Z,41.00
2017-07-23T22:53:33.796Z,41.20
2017-07-23T22:56:01.876Z,41.30
2017-07-23T22:58:29.991Z,41.50
2017-07-23T23:00:58.078Z,41.40
2017-07-23T23:03:26.174Z,41.50
2017-07-23T23:05:54.224Z,41.70
2017-07-23T23:08:22.354Z,41.90
2017-07-23T23:10:50.420Z,42.00
2017-07-23T23:13:18.491Z,42.10
2017-07-23T23:15:46.571Z,42.40
2017-07-23T23:18:14.634Z,43.30
2017-07-23T23:20:42.706Z,42.80
2017-07-23T23:23:10.800Z,43.00
2017-07-23T23:25:39.634Z,43.70
2017-07-23T23:28:07.706Z,43.30
2017-07-23T23:30:35.782Z,43.50
2017-07-23T23:33:03.852Z,43.70
2017-07-23T23:35:31.927Z,43.60
2017-07-23T23:37:59.996Z,43.80
2017-07-23T23:40:28.102Z,43.60
2017-07-23T23:42:56.166Z,43.90
2017-07-23T23:45:24.255Z,44.00
2017-07-23T23:47:52.397Z,44.10
2017-07-23T23:50:20.711Z,44.00
2017-07-23T23:52:48.790Z,43.80
2017-07-23T23:55:16.851Z,43.80
2017-07-23T23:57:44.917Z,43.80
